createdAt,value
2023-12-19T00:01:50.248Z,99188.00
2023-12-19T00:04:19.627Z,99184.00
2023-12-19T00:06:49.115Z,99193.00
2023-12-19T00:09:18.411Z,99195.00
2023-12-19T00:11:47.687Z,99201.00
2023-12-19T00:14:16.973Z,99202.00
2023-12-19T00:16:46.188Z,99200.00
2023-12-19T00:19:15.516Z,99205.00
2023-12-19T00:21:44.797Z,99210.00
2023-12-19T00:24:15.024Z,99214.00
2023-12-19T00:26:44.205Z,99218.00
2023-12-19T00:29:13.467Z,99221.00
2023-12-19T00:31:42.822Z,99227.00
2023-12-19T00:34:12.206Z,99230.00
2023-12-19T00:36:41.887Z,99229.00
2023-12-19T00:39:11.456Z,99233.00
2023-12-19T00:41:40.800Z,99238.00
2023-12-19T00:44:10.063Z,99245.00
2023-12-19T00:46:39.321Z,99248.00
2023-12-19T00:49:08.610Z,99245.00
2023-12-19T00:51:38.005Z,99250.00
2023-12-19T00:54:07.623Z,99254.00
2023-12-19T00:56:36.912Z,99256.00
2023-12-19T00:59:06.258Z,99260.00
2023-12-19T01:01:35.453Z,99261.00
2023-12-19T01:04:06.189Z,99268.00
2023-12-19T01:06:35.522Z,99266.00
2023-12-19T01:09:06.411Z,99264.00
2023-12-19T01:11:35.778Z,99275.00
2023-12-19T01:14:05.246Z,99283.00
2023-12-19T01:16:34.603Z,99282.00
2023-12-19T01:19:05.286Z,99280.00
2023-12-19T01:21:34.619Z,99285.00
2023-12-19T01:24:03.884Z,99286.00
2023-12-19T01:26:35.316Z,99295.00
2023-12-19T01:29:05.124Z,99291.00
2023-12-19T01:31:34.752Z,99291.00
2023-12-19T01:34:04.143Z,99293.00
2023-12-19T01:36:33.867Z,99300.00
2023-12-19T01:39:03.114Z,99299.00
2023-12-19T01:41:32.599Z,99298.00
2023-12-19T01:44:02.824Z,99300.00
2023-12-19T01:46:32.225Z,99311.00
2023-12-19T01:49:03.009Z,99305.00
2023-12-19T01:51:33.586Z,99310.00
2023-12-19T01:54:06.938Z,99311.00
2023-12-19T01:56:37.250Z,99299.00
2023-12-19T01:59:08.519Z,99308.00
2023-12-19T02:01:38.243Z,99310.00
2023-12-19T02:04:09.005Z,99299.00
2023-12-19T02:06:38.646Z,99309.00
2023-12-19T02:09:09.536Z,99310.00
2023-12-19T02:11:39.007Z,99310.00
2023-12-19T02:14:08.404Z,99295.00
2023-12-19T02:16:37.635Z,99308.00
2023-12-19T02:19:08.505Z,99299.00
2023-12-19T02:21:39.854Z,99309.00
2023-12-19T02:24:09.353Z,99310.00
2023-12-19T02:26:40.747Z,99309.00
2023-12-19T02:29:09.977Z,99315.00
2023-12-19T02:31:39.392Z,99307.00
2023-12-19T02:34:08.620Z,99305.00
2023-12-19T02:36:39.186Z,99312.00
2023-12-19T02:39:08.414Z,99309.00
2023-12-19T02:41:37.606Z,99304.00
2023-12-19T02:44:06.993Z,99297.00
2023-12-19T02:46:36.635Z,99296.00
2023-12-19T02:49:06.041Z,99296.00
2023-12-19T02:51:35.292Z,99305.00
2023-12-19T02:54:04.523Z,99297.00
2023-12-19T02:56:36.367Z,99305.00
2023-12-19T02:59:05.998Z,99299.00
2023-12-19T03:01:35.464Z,99298.00
2023-12-19T03:04:04.948Z,99304.00
2023-12-19T03:06:34.242Z,99298.00
2023-12-19T03:09:03.752Z,99290.00
2023-12-19T03:11:32.942Z,99298.00
2023-12-19T03:14:02.137Z,99293.00
2023-12-19T03:16:31.378Z,99285.00
2023-12-19T03:19:00.669Z,99289.00
2023-12-19T03:21:30.184Z,99295.00
2023-12-19T03:23:59.515Z,99292.00
2023-12-19T03:26:28.753Z,99289.00
2023-12-19T03:28:57.981Z,99280.00
2023-12-19T03:31:27.283Z,99284.00
2023-12-19T03:33:56.732Z,99278.00
2023-12-19T03:36:26.153Z,99277.00
2023-12-19T03:38:55.383Z,99282.00
2023-12-19T03:41:24.907Z,99283.00
2023-12-19T03:43:54.176Z,99286.00
2023-12-19T03:46:23.459Z,99274.00
2023-12-19T03:48:52.697Z,99273.00
2023-12-19T03:51:22.078Z,99273.00
2023-12-19T03:53:51.532Z,99262.00
2023-12-19T03:56:20.755Z,99269.00
2023-12-19T03:58:50.002Z,99259.00
2023-12-19T04:01:20.842Z,99260.00
2023-12-19T04:03:50.182Z,99244.00
2023-12-19T04:06:19.538Z,99239.00
2023-12-19T04:08:48.789Z,99243.00
2023-12-19T04:11:18.108Z,99241.00
2023-12-19T04:13:47.337Z,99244.00
2023-12-19T04:16:19.567Z,99237.00
2023-12-19T04:18:48.880Z,99222.00
2023-12-19T04:21:18.234Z,99225.00
2023-12-19T04:23:47.520Z,99218.00
2023-12-19T04:26:23.096Z,99215.00
2023-12-19T04:28:52.417Z,99216.00
2023-12-19T04:31:21.708Z,99210.00
2023-12-19T04:33:51.122Z,99204.00
2023-12-19T04:36:21.062Z,99194.00
2023-12-19T04:38:50.280Z,99200.00
2023-12-19T04:41:19.555Z,99186.00
2023-12-19T04:43:48.799Z,99191.00
2023-12-19T04:46:18.505Z,99189.00
2023-12-19T04:48:48.740Z,99192.00
2023-12-19T04:51:24.972Z,99191.00
2023-12-19T04:53:55.449Z,99172.00
2023-12-19T04:56:24.865Z,99179.00
2023-12-19T04:58:54.206Z,99170.00
2023-12-19T05:01:23.508Z,99168.00
2023-12-19T05:03:52.785Z,99164.00
2023-12-19T05:06:22.024Z,99149.00
2023-12-19T05:08:51.472Z,99147.00
2023-12-19T05:11:20.702Z,99136.00
2023-12-19T05:13:49.883Z,99137.00
2023-12-19T05:16:21.304Z,99136.00
2023-12-19T05:18:50.671Z,99130.00
2023-12-19T05:21:23.058Z,99123.00
2023-12-19T05:23:52.395Z,99119.00
2023-12-19T05:26:21.610Z,99106.00
2023-12-19T05:28:50.950Z,99104.00
2023-12-19T05:31:21.335Z,99096.00
2023-12-19T05:33:50.615Z,99094.00
2023-12-19T05:36:20.065Z,99091.00
2023-12-19T05:38:49.295Z,99083.00
2023-12-19T05:41:18.781Z,99085.00
2023-12-19T05:43:48.065Z,99078.00
2023-12-19T05:46:17.355Z,99078.00
2023-12-19T05:48:46.661Z,99074.00
2023-12-19T05:51:17.282Z,99070.00
2023-12-19T05:53:46.502Z,99067.00
2023-12-19T05:56:16.043Z,99062.00
2023-12-19T05:58:46.896Z,99055.00
2023-12-19T06:01:16.498Z,99060.00
2023-12-19T06:03:45.825Z,99050.00
2023-12-19T06:06:18.744Z,99035.00
2023-12-19T06:08:48.108Z,99049.00
2023-12-19T06:11:28.468Z,99040.00
2023-12-19T06:13:57.705Z,99048.00
2023-12-19T06:16:26.975Z,99032.00
2023-12-19T06:18:56.229Z,99034.00
2023-12-19T06:21:25.944Z,99021.00
2023-12-19T06:23:55.301Z,99020.00
2023-12-19T06:26:24.826Z,99016.00
2023-12-19T06:28:54.058Z,99007.00
2023-12-19T06:31:24.485Z,98992.00
2023-12-19T06:33:53.825Z,98995.00
2023-12-19T06:36:33.601Z,98990.00
2023-12-19T06:39:03.150Z,98986.00
2023-12-19T06:41:32.535Z,98989.00
2023-12-19T06:44:01.734Z,98984.00
2023-12-19T06:46:30.901Z,98981.00
2023-12-19T06:49:00.185Z,98969.00
2023-12-19T06:51:30.317Z,98982.00
2023-12-19T06:53:59.782Z,98973.00
2023-12-19T06:56:30.448Z,98968.00
2023-12-19T06:58:59.804Z,98968.00
2023-12-19T07:01:29.250Z,98960.00
2023-12-19T07:03:58.885Z,98959.00
2023-12-19T07:06:28.227Z,98953.00
2023-12-19T07:08:57.742Z,98956.00
2023-12-19T07:11:30.963Z,98945.00
2023-12-19T07:14:00.172Z,98947.00
2023-12-19T07:16:29.352Z,98947.00
2023-12-19T07:18:58.699Z,98951.00
2023-12-19T07:21:28.530Z,98944.00
2023-12-19T07:23:57.965Z,98950.00
2023-12-19T07:26:30.577Z,98943.00
2023-12-19T07:29:01.320Z,98943.00
2023-12-19T07:31:35.869Z,98942.00
2023-12-19T07:34:08.026Z,98942.00
2023-12-19T07:36:37.944Z,98935.00
2023-12-19T07:39:07.212Z,98934.00
2023-12-19T07:41:36.464Z,98932.00
2023-12-19T07:44:11.409Z,98930.00
2023-12-19T07:46:44.642Z,98933.00
2023-12-19T07:49:14.371Z,98923.00
2023-12-19T07:51:43.722Z,98929.00
2023-12-19T07:54:12.907Z,98926.00
2023-12-19T07:56:45.488Z,98938.00
2023-12-19T07:59:16.097Z,98919.00
2023-12-19T08:01:53.484Z,98922.00
2023-12-19T08:04:22.747Z,98921.00
2023-12-19T08:06:52.022Z,98925.00
2023-12-19T08:09:21.272Z,98922.00
2023-12-19T08:11:51.367Z,98918.00
2023-12-19T08:14:20.531Z,98916.00
2023-12-19T08:16:50.570Z,98909.00
2023-12-19T08:19:20.051Z,98916.00
2023-12-19T08:21:57.269Z,98907.00
2023-12-19T08:24:28.071Z,98904.00
2023-12-19T08:26:57.353Z,98909.00
2023-12-19T08:29:26.569Z,98900.00
2023-12-19T08:31:55.922Z,98903.00
2023-12-19T08:34:25.323Z,98900.00
2023-12-19T08:36:54.708Z,98898.00
2023-12-19T08:39:23.956Z,98898.00
2023-12-19T08:41:53.217Z,98901.00
2023-12-19T08:44:22.453Z,98898.00
2023-12-19T08:46:51.690Z,98898.00
2023-12-19T08:49:21.017Z,98907.00
2023-12-19T08:51:53.251Z,98892.00
2023-12-19T08:54:22.490Z,98897.00
2023-12-19T08:56:51.671Z,98896.00
2023-12-19T08:59:20.911Z,98896.00
2023-12-19T09:01:50.318Z,98900.00
2023-12-19T09:04:19.746Z,98897.00
2023-12-19T09:06:49.639Z,98900.00
2023-12-19T09:09:19.353Z,98906.00
2023-12-19T09:11:48.570Z,98902.00
2023-12-19T09:14:19.316Z,98909.00
2023-12-19T09:16:48.588Z,98910.00
2023-12-19T09:19:19.398Z,98917.00
2023-12-19T09:21:48.714Z,98928.00
2023-12-19T09:24:18.040Z,98922.00
2023-12-19T09:26:47.296Z,98919.00
2023-12-19T09:29:16.725Z,98928.00
2023-12-19T09:31:49.827Z,98935.00
2023-12-19T09:34:19.126Z,98935.00
2023-12-19T09:36:56.044Z,98935.00
2023-12-19T09:39:26.209Z,98934.00
2023-12-19T09:41:56.083Z,98938.00
2023-12-19T09:44:26.906Z,98941.00
2023-12-19T09:46:56.718Z,98939.00
2023-12-19T09:49:31.094Z,98938.00
2023-12-19T09:52:02.177Z,98928.00
2023-12-19T09:54:31.824Z,98936.00
2023-12-19T09:57:01.918Z,98940.00
2023-12-19T09:59:31.999Z,98940.00
2023-12-19T10:02:01.349Z,98938.00
2023-12-19T10:04:30.783Z,98948.00
2023-12-19T10:07:01.191Z,98951.00
2023-12-19T10:09:30.762Z,98956.00
2023-12-19T10:12:14.569Z,98956.00
2023-12-19T10:14:43.757Z,98955.00
2023-12-19T10:17:19.825Z,98959.00
2023-12-19T10:19:49.231Z,98963.00
2023-12-19T10:22:23.130Z,98958.00
2023-12-19T10:25:02.904Z,98956.00
2023-12-19T10:27:32.350Z,98954.00
2023-12-19T10:30:20.647Z,98959.00
2023-12-19T10:32:50.091Z,98959.00
2023-12-19T10:35:19.797Z,98966.00
2023-12-19T10:37:49.461Z,98965.00
2023-12-19T10:40:22.009Z,98964.00
2023-12-19T10:43:04.959Z,98967.00
2023-12-19T10:45:35.350Z,98968.00
2023-12-19T10:48:05.331Z,98967.00
2023-12-19T10:50:34.855Z,98968.00
2023-12-19T10:53:08.071Z,98973.00
2023-12-19T10:55:49.278Z,98975.00
2023-12-19T10:58:24.746Z,98980.00
2023-12-19T11:00:56.926Z,98981.00
2023-12-19T11:03:39.989Z,98980.00
2023-12-19T11:06:15.719Z,98983.00
2023-12-19T11:08:51.741Z,98989.00
2023-12-19T11:11:40.617Z,99001.00
2023-12-19T11:14:09.900Z,98999.00
2023-12-19T11:17:29.777Z,98997.00
2023-12-19T11:20:08.503Z,98994.00
2023-12-19T11:23:12.147Z,99003.00
2023-12-19T11:25:51.521Z,99003.00
2023-12-19T11:28:21.406Z,99002.00
2023-12-19T11:30:50.689Z,99002.00
2023-12-19T11:33:33.316Z,99007.00
2023-12-19T11:36:17.205Z,99020.00
2023-12-19T11:38:47.919Z,99017.00
2023-12-19T11:41:40.137Z,99018.00
2023-12-19T11:44:09.906Z,99021.00
2023-12-19T11:46:39.045Z,99023.00
2023-12-19T11:49:09.326Z,99023.00
2023-12-19T11:51:49.061Z,99031.00
2023-12-19T11:54:18.778Z,99026.00
2023-12-19T11:57:01.038Z,99033.00
2023-12-19T11:59:56.458Z,99032.00
2023-12-19T12:02:39.557Z,99034.00
2023-12-19T12:05:09.648Z,99051.00
2023-12-19T12:07:50.635Z,99048.00
2023-12-19T12:10:24.338Z,99043.00
2023-12-19T12:12:54.775Z,99057.00
2023-12-19T12:15:26.566Z,99057.00
2023-12-19T12:18:09.521Z,99056.00
2023-12-19T12:20:39.046Z,99063.00
2023-12-19T12:23:08.373Z,99070.00
2023-12-19T12:25:37.686Z,99069.00
2023-12-19T12:28:16.783Z,99079.00
2023-12-19T12:30:46.652Z,99082.00
2023-12-19T12:33:16.038Z,99082.00
2023-12-19T12:35:45.403Z,99081.00
2023-12-19T12:38:21.018Z,99090.00
2023-12-19T12:41:03.522Z,99097.00
2023-12-19T12:43:41.974Z,99094.00
2023-12-19T12:46:15.684Z,99093.00
2023-12-19T12:49:08.248Z,99095.00
2023-12-19T12:51:39.194Z,99095.00
2023-12-19T12:54:08.565Z,99095.00
2023-12-19T12:56:42.624Z,99098.00
2023-12-19T12:59:16.961Z,99099.00
2023-12-19T13:01:51.758Z,99112.00
2023-12-19T13:04:21.700Z,99097.00
2023-12-19T13:06:52.348Z,99099.00
2023-12-19T13:09:24.436Z,99104.00
2023-12-19T13:11:55.261Z,99106.00
2023-12-19T13:14:25.627Z,99116.00
2023-12-19T13:16:54.818Z,99116.00
2023-12-19T13:19:25.046Z,99115.00
2023-12-19T13:21:54.717Z,99118.00
2023-12-19T13:24:24.232Z,99124.00
2023-12-19T13:26:53.603Z,99114.00
2023-12-19T13:29:22.961Z,99125.00
2023-12-19T13:31:52.196Z,99124.00
2023-12-19T13:34:21.525Z,99121.00
2023-12-19T13:36:50.940Z,99124.00
2023-12-19T13:39:22.292Z,99130.00
2023-12-19T13:41:53.593Z,99141.00
2023-12-19T13:44:23.237Z,99136.00
2023-12-19T13:46:52.633Z,99143.00
2023-12-19T13:49:22.003Z,99146.00
2023-12-19T13:51:51.560Z,99145.00
2023-12-19T13:54:22.829Z,99146.00
2023-12-19T13:56:52.122Z,99143.00
2023-12-19T13:59:21.359Z,99149.00
2023-12-19T14:01:50.725Z,99143.00
2023-12-19T14:04:22.902Z,99149.00
2023-12-19T14:06:52.378Z,99148.00
2023-12-19T14:09:21.600Z,99150.00
2023-12-19T14:11:53.620Z,99147.00
2023-12-19T14:14:22.781Z,99152.00
2023-12-19T14:16:52.026Z,99151.00
2023-12-19T14:19:21.476Z,99151.00
2023-12-19T14:21:52.285Z,99152.00
2023-12-19T14:24:21.814Z,99150.00
2023-12-19T14:26:50.973Z,99147.00
2023-12-19T14:29:20.223Z,99149.00
2023-12-19T14:31:49.945Z,99157.00
2023-12-19T14:34:19.411Z,99149.00
2023-12-19T14:36:49.308Z,99146.00
2023-12-19T14:39:18.596Z,99146.00
2023-12-19T14:41:47.858Z,99146.00
2023-12-19T14:44:17.201Z,99147.00
2023-12-19T14:46:46.421Z,99141.00
2023-12-19T14:49:15.998Z,99139.00
2023-12-19T14:51:45.749Z,99143.00
2023-12-19T14:54:15.002Z,99139.00
2023-12-19T14:56:45.247Z,99145.00
2023-12-19T14:59:15.115Z,99138.00
2023-12-19T15:01:47.788Z,99138.00
2023-12-19T15:04:17.224Z,99142.00
2023-12-19T15:06:46.653Z,99146.00
2023-12-19T15:09:15.934Z,99140.00
2023-12-19T15:11:45.222Z,99145.00
2023-12-19T15:14:15.831Z,99148.00
2023-12-19T15:16:46.080Z,99146.00
2023-12-19T15:19:15.392Z,99148.00
2023-12-19T15:21:44.781Z,99151.00
2023-12-19T15:24:14.519Z,99148.00
2023-12-19T15:26:45.348Z,99151.00
2023-12-19T15:29:16.888Z,99144.00
2023-12-19T15:31:48.390Z,99144.00
2023-12-19T15:34:18.485Z,99142.00
2023-12-19T15:36:47.950Z,99140.00
2023-12-19T15:39:18.247Z,99137.00
2023-12-19T15:41:47.471Z,99145.00
2023-12-19T15:44:17.020Z,99132.00
2023-12-19T15:46:46.238Z,99128.00
2023-12-19T15:49:15.832Z,99133.00
2023-12-19T15:51:45.240Z,99131.00
2023-12-19T15:54:14.534Z,99128.00
2023-12-19T15:56:44.862Z,99134.00
2023-12-19T15:59:14.571Z,99140.00
2023-12-19T16:01:44.852Z,99134.00
2023-12-19T16:04:14.225Z,99137.00
2023-12-19T16:06:44.455Z,99134.00
2023-12-19T16:09:13.871Z,99139.00
2023-12-19T16:11:43.095Z,99146.00
2023-12-19T16:14:12.349Z,99143.00
2023-12-19T16:16:41.535Z,99141.00
2023-12-19T16:19:12.034Z,99138.00
2023-12-19T16:21:47.530Z,99143.00
2023-12-19T16:24:19.224Z,99134.00
2023-12-19T16:26:48.453Z,99137.00
2023-12-19T16:29:21.231Z,99136.00
2023-12-19T16:31:55.194Z,99134.00
2023-12-19T16:34:26.742Z,99136.00
2023-12-19T16:36:56.381Z,99129.00
2023-12-19T16:39:25.920Z,99135.00
2023-12-19T16:41:55.155Z,99130.00
2023-12-19T16:44:24.411Z,99134.00
2023-12-19T16:46:53.580Z,99130.00
2023-12-19T16:49:22.928Z,99130.00
2023-12-19T16:51:52.532Z,99137.00
2023-12-19T16:54:22.160Z,99132.00
2023-12-19T16:56:51.448Z,99127.00
2023-12-19T16:59:22.540Z,99135.00
2023-12-19T17:01:51.865Z,99131.00
2023-12-19T17:04:21.243Z,99129.00
2023-12-19T17:06:54.596Z,99124.00
2023-12-19T17:09:24.632Z,99126.00
2023-12-19T17:11:54.185Z,99121.00
2023-12-19T17:14:23.446Z,99121.00
2023-12-19T17:16:52.618Z,99123.00
2023-12-19T17:19:21.895Z,99128.00
2023-12-19T17:21:51.370Z,99124.00
2023-12-19T17:24:26.899Z,99116.00
2023-12-19T17:27:02.136Z,99109.00
2023-12-19T17:29:31.276Z,99114.00
2023-12-19T17:32:00.538Z,99109.00
2023-12-19T17:34:29.898Z,99110.00
2023-12-19T17:36:59.346Z,99109.00
2023-12-19T17:39:31.807Z,99108.00
2023-12-19T17:42:01.048Z,99108.00
2023-12-19T17:44:30.256Z,99102.00
2023-12-19T17:46:59.536Z,99109.00
2023-12-19T17:49:28.795Z,99107.00
2023-12-19T17:51:58.504Z,99092.00
2023-12-19T17:54:27.739Z,99102.00
2023-12-19T17:57:01.356Z,99093.00
2023-12-19T17:59:32.084Z,99097.00
2023-12-19T18:02:02.323Z,99085.00
2023-12-19T18:04:32.783Z,99089.00
2023-12-19T18:07:02.086Z,99091.00
2023-12-19T18:09:31.710Z,99090.00
2023-12-19T18:12:01.062Z,99092.00
2023-12-19T18:14:30.879Z,99090.00
2023-12-19T18:17:05.070Z,99087.00
2023-12-19T18:19:34.863Z,99090.00
2023-12-19T18:22:04.409Z,99088.00
2023-12-19T18:24:33.727Z,99075.00
2023-12-19T18:27:06.187Z,99070.00
2023-12-19T18:29:35.452Z,99072.00
2023-12-19T18:32:04.999Z,99070.00
2023-12-19T18:34:34.445Z,99073.00
2023-12-19T18:37:03.828Z,99071.00
2023-12-19T18:39:33.132Z,99071.00
2023-12-19T18:42:02.378Z,99064.00
2023-12-19T18:44:31.793Z,99068.00
2023-12-19T18:47:00.976Z,99072.00
2023-12-19T18:49:30.247Z,99070.00
2023-12-19T18:52:00.857Z,99066.00
2023-12-19T18:54:30.079Z,99066.00
2023-12-19T18:56:59.340Z,99063.00
2023-12-19T18:59:28.539Z,99065.00
2023-12-19T19:01:57.887Z,99057.00
2023-12-19T19:04:27.287Z,99058.00
2023-12-19T19:06:57.559Z,99057.00
2023-12-19T19:09:26.818Z,99063.00
2023-12-19T19:11:56.217Z,99068.00
2023-12-19T19:14:25.497Z,99070.00
2023-12-19T19:16:54.682Z,99068.00
2023-12-19T19:19:25.032Z,99061.00
2023-12-19T19:21:55.036Z,99065.00
2023-12-19T19:24:24.255Z,99062.00
2023-12-19T19:26:53.626Z,99067.00
2023-12-19T19:29:23.824Z,99067.00
2023-12-19T19:31:53.511Z,99055.00
2023-12-19T19:34:22.976Z,99066.00
2023-12-19T19:36:53.681Z,99062.00
2023-12-19T19:39:24.373Z,99060.00
2023-12-19T19:41:54.191Z,99061.00
2023-12-19T19:44:23.466Z,99059.00
2023-12-19T19:46:52.689Z,99055.00
2023-12-19T19:49:22.435Z,99062.00
2023-12-19T19:51:52.267Z,99064.00
2023-12-19T19:54:24.734Z,99065.00
2023-12-19T19:56:53.950Z,99060.00
2023-12-19T19:59:26.366Z,99055.00
2023-12-19T20:01:55.660Z,99058.00
2023-12-19T20:04:25.033Z,99063.00
2023-12-19T20:06:54.426Z,99069.00
2023-12-19T20:09:24.057Z,99069.00
2023-12-19T20:11:53.383Z,99066.00
2023-12-19T20:14:22.955Z,99065.00
2023-12-19T20:16:52.331Z,99064.00
2023-12-19T20:19:21.614Z,99066.00
2023-12-19T20:21:50.920Z,99063.00
2023-12-19T20:24:20.333Z,99063.00
2023-12-19T20:26:50.300Z,99063.00
2023-12-19T20:29:21.552Z,99058.00
2023-12-19T20:31:50.773Z,99056.00
2023-12-19T20:34:20.211Z,99055.00
2023-12-19T20:36:49.641Z,99057.00
2023-12-19T20:39:18.812Z,99059.00
2023-12-19T20:41:49.056Z,99059.00
2023-12-19T20:44:18.460Z,99056.00
2023-12-19T20:46:48.244Z,99042.00
2023-12-19T20:49:17.839Z,99051.00
2023-12-19T20:51:47.450Z,99054.00
2023-12-19T20:54:20.868Z,99054.00
2023-12-19T20:56:50.587Z,99057.00
2023-12-19T20:59:20.317Z,99052.00
2023-12-19T21:01:49.807Z,99048.00
2023-12-19T21:04:19.394Z,99051.00
2023-12-19T21:06:48.791Z,99054.00
2023-12-19T21:09:17.974Z,99047.00
2023-12-19T21:11:47.219Z,99050.00
2023-12-19T21:14:16.684Z,99054.00
2023-12-19T21:16:58.381Z,99057.00
2023-12-19T21:19:35.293Z,99058.00
2023-12-19T21:22:07.057Z,99062.00
2023-12-19T21:24:37.700Z,99056.00
2023-12-19T21:27:07.818Z,99064.00
2023-12-19T21:29:37.182Z,99066.00
2023-12-19T21:32:06.882Z,99073.00
2023-12-19T21:34:38.567Z,99068.00
2023-12-19T21:37:07.887Z,99070.00
2023-12-19T21:39:37.360Z,99072.00
2023-12-19T21:42:07.103Z,99077.00
2023-12-19T21:44:36.378Z,99087.00
2023-12-19T21:47:05.725Z,99086.00
2023-12-19T21:49:39.223Z,99083.00
2023-12-19T21:52:09.249Z,99082.00
2023-12-19T21:54:40.921Z,99088.00
2023-12-19T21:57:10.186Z,99093.00
2023-12-19T21:59:39.371Z,99087.00
2023-12-19T22:02:09.157Z,99092.00
2023-12-19T22:04:38.565Z,99093.00
2023-12-19T22:07:07.865Z,99097.00
2023-12-19T22:09:40.918Z,99094.00
2023-12-19T22:12:12.686Z,99101.00
2023-12-19T22:14:42.170Z,99100.00
2023-12-19T22:17:11.479Z,99099.00
2023-12-19T22:19:41.066Z,99099.00
2023-12-19T22:22:12.789Z,99101.00
2023-12-19T22:24:43.068Z,99100.00
2023-12-19T22:27:14.784Z,99106.00
2023-12-19T22:29:49.488Z,99101.00
2023-12-19T22:32:18.927Z,99108.00
2023-12-19T22:34:57.211Z,99106.00
2023-12-19T22:37:26.504Z,99111.00
2023-12-19T22:39:55.764Z,99108.00
2023-12-19T22:42:25.090Z,99108.00
2023-12-19T22:44:54.735Z,99108.00
2023-12-19T22:47:24.136Z,99115.00
2023-12-19T22:49:53.304Z,99118.00
2023-12-19T22:52:22.725Z,99126.00
2023-12-19T22:54:52.000Z,99122.00
2023-12-19T22:57:21.293Z,99132.00
2023-12-19T22:59:50.570Z,99140.00
2023-12-19T23:02:19.996Z,99136.00
2023-12-19T23:04:50.879Z,99143.00
2023-12-19T23:07:20.333Z,99136.00
2023-12-19T23:09:49.740Z,99138.00
2023-12-19T23:12:18.984Z,99147.00
2023-12-19T23:14:49.347Z,99147.00
2023-12-19T23:17:18.886Z,99142.00
2023-12-19T23:19:48.320Z,99161.00
2023-12-19T23:22:17.860Z,99160.00
2023-12-19T23:24:47.215Z,99163.00
2023-12-19T23:27:16.403Z,99166.00
2023-12-19T23:29:45.588Z,99171.00
2023-12-19T23:32:15.187Z,99176.00
2023-12-19T23:34:44.474Z,99178.00
2023-12-19T23:37:13.775Z,99186.00
2023-12-19T23:39:43.182Z,99191.00
2023-12-19T23:42:12.434Z,99189.00
2023-12-19T23:44:41.743Z,99199.00
2023-12-19T23:47:10.998Z,99190.00
2023-12-19T23:49:43.656Z,99190.00
2023-12-19T23:52:12.996Z,99193.00
2023-12-19T23:54:42.368Z,99193.00
2023-12-19T23:57:11.756Z,99199.00
2023-12-19T23:59:41.010Z,99201.00
